Observation data for Gail on 12/10/2018      Previous  Date       Current Mesonet Observations  Soil Data  Daily Summary Page  Observations in Plain Language
KGGS 100600Z 32003KT M02/M05 A3038 RMK A01 T10191052  RH  079%=      5-min Rain = 0
KGGS 100605Z 34003KT M03/M06 A3038 RMK A01 T10251056  RH  080%=      5-min Rain = 0
KGGS 100610Z 34002KT M03/M06 A3038 RMK A01 T10271056  RH  080%=      5-min Rain = 0
KGGS 100615Z 32003KT M03/M06 A3038 RMK A01 T10271055  RH  081%=      5-min Rain = 0
KGGS 100620Z 31002KT M03/M05 A3038 RMK A01 T10251051  RH  082%=      5-min Rain = 0
KGGS 100625Z 31003KT M02/M05 A3038 RMK A01 T10231049  RH  083%=      5-min Rain = 0
KGGS 100630Z 29003KT M02/M05 A3037 RMK A01 T10201046  RH  083%=      5-min Rain = 0
KGGS 100635Z 29003KT M02/M05 A3037 RMK A01 T10211047  RH  083%=      5-min Rain = 0
KGGS 100640Z 28002KT M02/M05 A3037 RMK A01 T10221048  RH  083%=      5-min Rain = 0
KGGS 100645Z 22001KT M03/M05 A3037 RMK A01 T10251050  RH  083%=      5-min Rain = 0
KGGS 100650Z 22003KT M02/M05 A3037 RMK A01 T10221047  RH  084%=      5-min Rain = 0
KGGS 100655Z 22003KT M02/M04 A3037 RMK A01 T10171042  RH  083%=      5-min Rain = 0
KGGS 100700Z 21003KT M02/M04 A3036 RMK A01 T10171043  RH  083%=      5-min Rain = 0
KGGS 100705Z 22003KT M02/M05 A3036 RMK A01 T10191045  RH  083%=      5-min Rain = 0
KGGS 100710Z 25002KT M02/M04 A3036 RMK A01 T10181044  RH  083%=      5-min Rain = 0
KGGS 100715Z 28003KT M01/M04 A3036 RMK A01 T10141041  RH  083%=      5-min Rain = 0
KGGS 100720Z 30005KT M02/M05 A3036 RMK A01 T10201048  RH  081%=      5-min Rain = 0
KGGS 100725Z 32003KT M03/M06 A3036 RMK A01 T10301058  RH  081%=      5-min Rain = 0
KGGS 100730Z 33003KT M03/M06 A3036 RMK A01 T10291055  RH  082%=      5-min Rain = 0
KGGS 100735Z 31003KT M02/M05 A3036 RMK A01 T10231048  RH  083%=      5-min Rain = 0
KGGS 100740Z 30003KT M02/M05 A3036 RMK A01 T10201045  RH  083%=      5-min Rain = 0
KGGS 100745Z 31003KT M02/M05 A3036 RMK A01 T10191045  RH  083%=      5-min Rain = 0
KGGS 100750Z 31003KT M02/M04 A3036 RMK A01 T10171044  RH  082%=      5-min Rain = 0
KGGS 100755Z 31003KT M02/M05 A3036 RMK A01 T10181045  RH  082%=      5-min Rain = 0
KGGS 100800Z 32003KT M02/M05 A3036 RMK A01 T10191046  RH  082%=      5-min Rain = 0
KGGS 100805Z 34002KT M02/M05 A3036 RMK A01 T10221049  RH  082%=      5-min Rain = 0
KGGS 100810Z 35002KT M03/M05 A3036 RMK A01 T10261052  RH  082%=      5-min Rain = 0
KGGS 100815Z 34002KT M03/M05 A3036 RMK A01 T10261053  RH  082%=      5-min Rain = 0
KGGS 100820Z 34002KT M03/M05 A3036 RMK A01 T10261052  RH  083%=      5-min Rain = 0
KGGS 100825Z 34001KT M03/M05 A3036 RMK A01 T10261051  RH  083%=      5-min Rain = 0
KGGS 100830Z 34000KT M03/M05 A3036 RMK A01 T10271051  RH  083%=      5-min Rain = 0
KGGS 100835Z 32001KT M03/M05 A3035 RMK A01 T10281052  RH  084%=      5-min Rain = 0
KGGS 100840Z 32001KT M03/M05 A3035 RMK A01 T10281052  RH  084%=      5-min Rain = 0
KGGS 100845Z 33001KT M03/M05 A3035 RMK A01 T10281051  RH  084%=      5-min Rain = 0
KGGS 100850Z 34002KT M03/M05 A3035 RMK A01 T10271050  RH  085%=      5-min Rain = 0
KGGS 100855Z 35002KT M02/M05 A3035 RMK A01 T10241047  RH  085%=      5-min Rain = 0
KGGS 100900Z 33002KT M03/M05 A3035 RMK A01 T10251047  RH  085%=      5-min Rain = 0
KGGS 100905Z 32003KT M02/M05 A3035 RMK A01 T10241046  RH  085%=      5-min Rain = 0
KGGS 100910Z 31003KT M02/M05 A3035 RMK A01 T10241046  RH  085%=      5-min Rain = 0
KGGS 100915Z 32003KT M02/M05 A3035 RMK A01 T10231045  RH  085%=      5-min Rain = 0
KGGS 100920Z 31003KT M02/M04 A3035 RMK A01 T10211042  RH  086%=      5-min Rain = 0
KGGS 100925Z 29003KT M02/M04 A3035 RMK A01 T10191041  RH  085%=      5-min Rain = 0
KGGS 100930Z 31003KT M02/M04 A3034 RMK A01 T10161039  RH  085%=      5-min Rain = 0
KGGS 100935Z 32003KT M01/M04 A3034 RMK A01 T10131038  RH  084%=      5-min Rain = 0
KGGS 100940Z 33002KT M01/M04 A3034 RMK A01 T10141039  RH  083%=      5-min Rain = 0
KGGS 100945Z 32002KT M02/M04 A3034 RMK A01 T10161042  RH  083%=      5-min Rain = 0
KGGS 100950Z 22002KT M02/M05 A3034 RMK A01 T10191046  RH  082%=      5-min Rain = 0
KGGS 100955Z 20004KT M03/M05 A3034 RMK A01 T10261052  RH  082%=      5-min Rain = 0
KGGS 101000Z 20003KT M03/M06 A3034 RMK A01 T10301055  RH  083%=      5-min Rain = 0
KGGS 101005Z 22002KT M03/M06 A3034 RMK A01 T10321056  RH  083%=      5-min Rain = 0
KGGS 101010Z 26001KT M03/M06 A3034 RMK A01 T10321055  RH  084%=      5-min Rain = 0
KGGS 101015Z 30002KT M03/M06 A3034 RMK A01 T10341057  RH  084%=      5-min Rain = 0
KGGS 101020Z 32002KT M04/M06 A3034 RMK A01 T10351058  RH  085%=      5-min Rain = 0
KGGS 101025Z 34002KT M04/M06 A3034 RMK A01 T10371059  RH  085%=      5-min Rain = 0
KGGS 101030Z 33001KT M04/M06 A3034 RMK A01 T10391061  RH  085%=      5-min Rain = 0
KGGS 101035Z 33001KT M03/M05 A3034 RMK A01 T10331053  RH  086%=      5-min Rain = 0
KGGS 101040Z 33001KT M03/M05 A3033 RMK A01 T10261045  RH  087%=      5-min Rain = 0
KGGS 101045Z 33000KT M02/M04 A3033 RMK A01 T10231043  RH  087%=      5-min Rain = 0
KGGS 101050Z 33000KT M02/M04 A3033 RMK A01 T10201039  RH  087%=      5-min Rain = 0
KGGS 101055Z 00000KT M02/M04 A3033 RMK A01 T10231042  RH  087%=      5-min Rain = 0
KGGS 101100Z 20000KT M02/M04 A3033 RMK A01 T10231042  RH  087%=      5-min Rain = 0
KGGS 101105Z 19004KT M03/M05 A3033 RMK A01 T10281048  RH  086%=      5-min Rain = 0
KGGS 101110Z 20006KT M04/M06 A3033 RMK A01 T10361056  RH  086%=      5-min Rain = 0
KGGS 101115Z 21006KT M04/M06 A3033 RMK A01 T10361055  RH  087%=      5-min Rain = 0
KGGS 101120Z 22003KT M03/M05 A3033 RMK A01 T10321050  RH  087%=      5-min Rain = 0
KGGS 101125Z 23003KT M03/M05 A3033 RMK A01 T10321050  RH  087%=      5-min Rain = 0
KGGS 101130Z 23003KT M03/M05 A3033 RMK A01 T10341052  RH  087%=      5-min Rain = 0
KGGS 101135Z 22005KT M03/M05 A3033 RMK A01 T10331051  RH  088%=      5-min Rain = 0
KGGS 101140Z 23004KT M03/M05 A3034 RMK A01 T10311049  RH  088%=      5-min Rain = 0
KGGS 101145Z 22005KT M03/M05 A3034 RMK A01 T10331050  RH  088%=      5-min Rain = 0
KGGS 101150Z 22006KT M03/M05 A3034 RMK A01 T10331050  RH  088%=      5-min Rain = 0
KGGS 101155Z 22006KT M03/M05 A3034 RMK A01 T10321049  RH  088%=      5-min Rain = 0
KGGS 101200Z 25004KT M03/M05 A3034 RMK A01 T10311048  RH  088%=      5-min Rain = 0
KGGS 101205Z 30003KT M03/M04 A3035 RMK A01 T10271044  RH  089%=      5-min Rain = 0
KGGS 101210Z 33002KT M03/M04 A3035 RMK A01 T10261044  RH  088%=      5-min Rain = 0
KGGS 101215Z 33003KT M03/M05 A3035 RMK A01 T10341052  RH  088%=      5-min Rain = 0
KGGS 101220Z 35003KT M04/M06 A3035 RMK A01 T10401058  RH  088%=      5-min Rain = 0
KGGS 101225Z 34004KT M04/M06 A3035 RMK A01 T10441061  RH  088%=      5-min Rain = 0
KGGS 101230Z 33004KT M04/M06 A3035 RMK A01 T10431061  RH  088%=      5-min Rain = 0
KGGS 101235Z 33004KT M04/M06 A3035 RMK A01 T10391056  RH  088%=      5-min Rain = 0
KGGS 101240Z 32003KT M04/M05 A3035 RMK A01 T10361053  RH  088%=      5-min Rain = 0
KGGS 101245Z 32004KT M03/M05 A3036 RMK A01 T10331049  RH  089%=      5-min Rain = 0
KGGS 101250Z 33004KT M03/M05 A3036 RMK A01 T10321049  RH  088%=      5-min Rain = 0
KGGS 101255Z 33005KT M03/M05 A3036 RMK A01 T10331050  RH  088%=      5-min Rain = 0
KGGS 101300Z 32005KT M03/M05 A3036 RMK A01 T10321049  RH  089%=      5-min Rain = 0
KGGS 101305Z 32005KT M03/M05 A3036 RMK A01 T10301047  RH  089%=      5-min Rain = 0
KGGS 101310Z 32005KT M03/M05 A3036 RMK A01 T10321049  RH  089%=      5-min Rain = 0
KGGS 101315Z 32005KT M03/M05 A3036 RMK A01 T10311048  RH  089%=      5-min Rain = 0
KGGS 101320Z 31003KT M03/M04 A3036 RMK A01 T10281044  RH  089%=      5-min Rain = 0
KGGS 101325Z 25002KT M03/M05 A3036 RMK A01 T10301047  RH  089%=      5-min Rain = 0
KGGS 101330Z 26003KT M03/M04 A3036 RMK A01 T10271043  RH  089%=      5-min Rain = 0
KGGS 101335Z 22004KT M03/M04 A3036 RMK A01 T10281044  RH  089%=      5-min Rain = 0
KGGS 101340Z 25003KT M03/M05 A3036 RMK A01 T10311048  RH  089%=      5-min Rain = 0
KGGS 101345Z 27004KT M03/M05 A3036 RMK A01 T10311048  RH  089%=      5-min Rain = 0
KGGS 101350Z 27005KT M03/M04 A3036 RMK A01 T10251041  RH  089%=      5-min Rain = 0
KGGS 101355Z 27005KT M02/M04 A3036 RMK A01 T10211038  RH  089%=      5-min Rain = 0
KGGS 101400Z 28004KT M02/M04 A3036 RMK A01 T10211038  RH  089%=      5-min Rain = 0
KGGS 101405Z 26003KT M02/M03 A3036 RMK A01 T10161033  RH  089%=      5-min Rain = 0
KGGS 101410Z 24004KT M01/M03 A3036 RMK A01 T10131030  RH  089%=      5-min Rain = 0
KGGS 101415Z 24004KT M01/M03 A3036 RMK A01 T10121029  RH  089%=      5-min Rain = 0
KGGS 101420Z 26003KT M01/M03 A3036 RMK A01 T10111028  RH  088%=      5-min Rain = 0
KGGS 101425Z 28002KT M01/M03 A3036 RMK A01 T10081025  RH  088%=      5-min Rain = 0
KGGS 101430Z 28002KT M00/M02 A3036 RMK A01 T10021019  RH  089%=      5-min Rain = 0
KGGS 101435Z 30001KT 00/M01 A3037 RMK A01 T00041014  RH  088%=      5-min Rain = 0
KGGS 101440Z 35002KT 00/M02 A3037 RMK A01 T00041015  RH  088%=      5-min Rain = 0
KGGS 101445Z 36003KT 01/M01 A3037 RMK A01 T00051014  RH  088%=      5-min Rain = 0
KGGS 101450Z 34003KT 01/M01 A3037 RMK A01 T00081011  RH  088%=      5-min Rain = 0
KGGS 101455Z 35001KT 01/M01 A3037 RMK A01 T00111009  RH  088%=      5-min Rain = 0
KGGS 101500Z 07000KT 02/M00 A3037 RMK A01 T00161004  RH  087%=      5-min Rain = 0
KGGS 101505Z 18000KT 03/00 A3037 RMK A01 T00260004  RH  087%=      5-min Rain = 0
KGGS 101510Z 29001KT 04/01 A3037 RMK A01 T00350010  RH  085%=      5-min Rain = 0
KGGS 101515Z 28001KT 04/01 A3037 RMK A01 T00400011  RH  083%=      5-min Rain = 0
KGGS 101520Z 27002KT 04/01 A3037 RMK A01 T00380007  RH  081%=      5-min Rain = 0
KGGS 101525Z 26002KT 04/01 A3037 RMK A01 T00400007  RH  080%=      5-min Rain = 0
KGGS 101530Z 24002KT 04/01 A3038 RMK A01 T00440011  RH  080%=      5-min Rain = 0
KGGS 101535Z 27001KT 05/01 A3038 RMK A01 T00460011  RH  079%=      5-min Rain = 0
KGGS 101540Z 34001KT 05/01 A3038 RMK A01 T00480011  RH  078%=      5-min Rain = 0
KGGS 101545Z 01002KT 05/01 A3038 RMK A01 T00510012  RH  077%=      5-min Rain = 0
KGGS 101550Z 33002KT 05/01 A3038 RMK A01 T00520011  RH  076%=      5-min Rain = 0
KGGS 101555Z 30001KT 06/01 A3038 RMK A01 T00550013  RH  076%=      5-min Rain = 0
KGGS 101600Z 31001KT 06/02 A3039 RMK A01 T00600015  RH  074%=      5-min Rain = 0
KGGS 101605Z 23001KT 06/02 A3039 RMK A01 T00640016  RH  072%=      5-min Rain = 0
KGGS 101610Z 31004KT 07/01 A3039 RMK A01 T00690014  RH  069%=      5-min Rain = 0
KGGS 101615Z 31006KT 07/01 A3039 RMK A01 T00700006  RH  064%=      5-min Rain = 0
KGGS 101620Z 32006KT 07/01 A3038 RMK A01 T00740008  RH  064%=      5-min Rain = 0
KGGS 101625Z 31006KT 08/01 A3038 RMK A01 T00750006  RH  062%=      5-min Rain = 0
KGGS 101630Z 31006KT 08/01 A3038 RMK A01 T00800006  RH  060%=      5-min Rain = 0
KGGS 101635Z 30004KT 08/00 A3038 RMK A01 T00820003  RH  058%=      5-min Rain = 0
KGGS 101640Z 00003KT 08/01 A3038 RMK A01 T00830006  RH  059%=      5-min Rain = 0
KGGS 101645Z 01003KT 08/01 A3038 RMK A01 T00820008  RH  060%=      5-min Rain = 0
KGGS 101650Z 03002KT 09/01 A3038 RMK A01 T00850010  RH  060%=      5-min Rain = 0
KGGS 101655Z 33001KT 09/01 A3038 RMK A01 T00890009  RH  058%=      5-min Rain = 0
KGGS 101700Z 32002KT 09/01 A3037 RMK A01 T00920005  RH  055%=      5-min Rain = 0
KGGS 101705Z 35003KT 09/01 A3037 RMK A01 T00930005  RH  055%=      5-min Rain = 0
KGGS 101710Z 34005KT 10/01 A3037 RMK A01 T00960005  RH  054%=      5-min Rain = 0
KGGS 101715Z 33003KT 10/00 A3037 RMK A01 T01010004  RH  052%=      5-min Rain = 0
KGGS 101720Z 31007KT 11/M01 A3037 RMK A01 T01061011  RH  045%=      5-min Rain = 0
KGGS 101725Z 29007KT 11/M01 A3036 RMK A01 T01061011  RH  044%=      5-min Rain = 0
KGGS 101730Z 31006KT 11/M01 A3036 RMK A01 T01101009  RH  044%=      5-min Rain = 0
KGGS 101735Z 30007KT 11/M01 A3036 RMK A01 T01121013  RH  042%=      5-min Rain = 0
KGGS 101740Z 28006KT 11/M02 A3036 RMK A01 T01121015  RH  041%=      5-min Rain = 0
KGGS 101745Z 31007KT 11/M01 A3036 RMK A01 T01141011  RH  042%=      5-min Rain = 0
KGGS 101750Z 30006KT 12/M01 A3036 RMK A01 T01171011  RH  041%=      5-min Rain = 0
KGGS 101755Z 26006KT 12/M02 A3036 RMK A01 T01201015  RH  039%=      5-min Rain = 0
KGGS 101800Z 30007KT 12/M02 A3035 RMK A01 T01201018  RH  038%=      5-min Rain = 0
KGGS 101805Z 27007KT 12/M02 A3035 RMK A01 T01201017  RH  039%=      5-min Rain = 0
KGGS 101810Z 28006KT 12/M02 A3035 RMK A01 T01201020  RH  038%=      5-min Rain = 0
KGGS 101815Z 27006KT 12/M02 A3035 RMK A01 T01231020  RH  037%=      5-min Rain = 0
KGGS 101820Z 30007KT 12/M03 A3034 RMK A01 T01241025  RH  036%=      5-min Rain = 0
KGGS 101825Z 30006KT 13/M02 A3034 RMK A01 T01251024  RH  036%=      5-min Rain = 0
KGGS 101830Z 30006KT 13/M02 A3033 RMK A01 T01271022  RH  036%=      5-min Rain = 0
KGGS 101835Z 28006KT 13/M03 A3033 RMK A01 T01291026  RH  034%=      5-min Rain = 0
KGGS 101840Z 31004G9KT 13/M02 A3033 RMK A01 T01321019  RH  035%=      5-min Rain = 0
KGGS 101845Z 31006KT 13/M02 A3033 RMK A01 T01321017  RH  036%=      5-min Rain = 0
KGGS 101850Z 32005KT 13/M02 A3032 RMK A01 T01281015  RH  037%=      5-min Rain = 0
KGGS 101855Z 30005KT 13/M01 A3032 RMK A01 T01311009  RH  038%=      5-min Rain = 0
KGGS 101900Z 29006KT 13/M01 A3032 RMK A01 T01331011  RH  037%=      5-min Rain = 0
KGGS 101905Z 29003G9KT 14/M01 A3031 RMK A01 T01351010  RH  037%=      5-min Rain = 0
KGGS 101910Z 31005KT 14/M01 A3031 RMK A01 T01351010  RH  037%=      5-min Rain = 0
KGGS 101915Z 31004KT 13/M01 A3031 RMK A01 T01341014  RH  036%=      5-min Rain = 0
KGGS 101920Z 00001KT 13/M01 A3031 RMK A01 T01341014  RH  036%=      5-min Rain = 0
KGGS 101925Z 28005KT 14/M01 A3031 RMK A01 T01381013  RH  036%=      5-min Rain = 0
KGGS 101930Z 27004KT 14/M01 A3031 RMK A01 T01401010  RH  036%=      5-min Rain = 0
KGGS 101935Z 26005G10KT 14/M01 A3031 RMK A01 T01411008  RH  036%=      5-min Rain = 0
KGGS 101940Z 29005KT 14/M01 A303 RMK A01 T01411008  RH  036%=      5-min Rain = 0
KGGS 101945Z 29004KT 14/M01 A303 RMK A01 T01401011  RH  036%=      5-min Rain = 0
KGGS 101950Z 28003KT 14/M01 A303 RMK A01 T01411008  RH  036%=      5-min Rain = 0
KGGS 101955Z 28006KT 14/M01 A303 RMK A01 T01431007  RH  036%=      5-min Rain = 0
KGGS 102000Z 28002KT 14/M01 A303 RMK A01 T01441008  RH  036%=      5-min Rain = 0
KGGS 102005Z 29004KT 14/M01 A3029 RMK A01 T01441012  RH  035%=      5-min Rain = 0
KGGS 102010Z 28004KT 14/M01 A3029 RMK A01 T01441010  RH  035%=      5-min Rain = 0
KGGS 102015Z 24003KT 15/M01 A3029 RMK A01 T01461010  RH  035%=      5-min Rain = 0
KGGS 102020Z 24005KT 15/M01 A3029 RMK A01 T01451008  RH  035%=      5-min Rain = 0
KGGS 102025Z 27006KT 15/M01 A3029 RMK A01 T01471009  RH  034%=      5-min Rain = 0
KGGS 102030Z 30002KT 14/M01 A3029 RMK A01 T01431010  RH  035%=      5-min Rain = 0
KGGS 102035Z 26006KT 15/M01 A3029 RMK A01 T01451008  RH  035%=      5-min Rain = 0
KGGS 102040Z 27005KT 14/M01 A3029 RMK A01 T01431010  RH  035%=      5-min Rain = 0
KGGS 102045Z 24003KT 15/M01 A3029 RMK A01 T01451008  RH  035%=      5-min Rain = 0
KGGS 102050Z 24004KT 15/M01 A3028 RMK A01 T01471007  RH  035%=      5-min Rain = 0
KGGS 102055Z 27005G10KT 15/M01 A3028 RMK A01 T01481008  RH  034%=      5-min Rain = 0
KGGS 102100Z 25004KT 14/M01 A3028 RMK A01 T01431010  RH  035%=      5-min Rain = 0
KGGS 102105Z 25004KT 15/M01 A3028 RMK A01 T01461008  RH  035%=      5-min Rain = 0
KGGS 102110Z 25002KT 15/M01 A3028 RMK A01 T01491010  RH  034%=      5-min Rain = 0
KGGS 102115Z 20002KT 15/M01 A3028 RMK A01 T01491009  RH  034%=      5-min Rain = 0
KGGS 102120Z 23004KT 15/M01 A3027 RMK A01 T01521009  RH  034%=      5-min Rain = 0
KGGS 102125Z 21005KT 15/M01 A3027 RMK A01 T01491009  RH  034%=      5-min Rain = 0
KGGS 102130Z 23004KT 15/M01 A3027 RMK A01 T01461012  RH  034%=      5-min Rain = 0
KGGS 102135Z 24002KT 15/M01 A3027 RMK A01 T01501011  RH  033%=      5-min Rain = 0
KGGS 102140Z 22004KT 15/M01 A3027 RMK A01 T01511006  RH  035%=      5-min Rain = 0
KGGS 102145Z 20003KT 15/M00 A3027 RMK A01 T01501004  RH  035%=      5-min Rain = 0
KGGS 102150Z 21003KT 15/M01 A3027 RMK A01 T01471007  RH  035%=      5-min Rain = 0
KGGS 102155Z 22005KT 15/M01 A3027 RMK A01 T01461007  RH  035%=      5-min Rain = 0
KGGS 102200Z 20005KT 15/M01 A3027 RMK A01 T01461007  RH  035%=      5-min Rain = 0
KGGS 102205Z 20004KT 15/M01 A3027 RMK A01 T01451006  RH  036%=      5-min Rain = 0
KGGS 102210Z 21003KT 15/M01 A3027 RMK A01 T01461007  RH  035%=      5-min Rain = 0
KGGS 102215Z 22004KT 15/M01 A3027 RMK A01 T01451007  RH  036%=      5-min Rain = 0
KGGS 102220Z 22005KT 14/M01 A3027 RMK A01 T01441007  RH  036%=      5-min Rain = 0
KGGS 102225Z 22003KT 14/M01 A3027 RMK A01 T01441009  RH  035%=      5-min Rain = 0
KGGS 102230Z 24004KT 14/M01 A3027 RMK A01 T01421009  RH  036%=      5-min Rain = 0
KGGS 102235Z 22004KT 14/M01 A3027 RMK A01 T01401006  RH  037%=      5-min Rain = 0
KGGS 102240Z 18004KT 14/00 A3028 RMK A01 T01360000  RH  040%=      5-min Rain = 0
KGGS 102245Z 18005KT 13/M00 A3028 RMK A01 T01341002  RH  040%=      5-min Rain = 0
KGGS 102250Z 19005KT 13/M00 A3028 RMK A01 T01311003  RH  040%=      5-min Rain = 0
KGGS 102255Z 18004KT 13/00 A3028 RMK A01 T013200-0  RH  041%=      5-min Rain = 0
KGGS 102300Z 17004KT 13/00 A3028 RMK A01 T01320003  RH  042%=      5-min Rain = 0
KGGS 102305Z 17004KT 13/00 A3028 RMK A01 T01290003  RH  042%=      5-min Rain = 0
KGGS 102310Z 17003KT 13/00 A3028 RMK A01 T01260004  RH  044%=      5-min Rain = 0
KGGS 102315Z 17004KT 13/01 A3028 RMK A01 T01250006  RH  045%=      5-min Rain = 0
KGGS 102320Z 17005KT 12/01 A3029 RMK A01 T01220007  RH  046%=      5-min Rain = 0
KGGS 102325Z 17005KT 12/01 A3029 RMK A01 T01160007  RH  048%=      5-min Rain = 0
KGGS 102330Z 17005KT 11/01 A3029 RMK A01 T01100009  RH  050%=      5-min Rain = 0
KGGS 102335Z 17006KT 10/01 A3029 RMK A01 T01030009  RH  053%=      5-min Rain = 0
KGGS 102340Z 17006KT 10/01 A3029 RMK A01 T00980010  RH  055%=      5-min Rain = 0
KGGS 102345Z 17006KT 09/01 A3029 RMK A01 T00930010  RH  057%=      5-min Rain = 0
KGGS 102350Z 17006KT 09/01 A3029 RMK A01 T00890010  RH  058%=      5-min Rain = 0
KGGS 102355Z 17006KT 09/01 A3029 RMK A01 T00860010  RH  060%=      5-min Rain = 0
KGGS 110000Z 17006KT 08/01 A3029 RMK A01 T00830010  RH  061%=      5-min Rain = 0
KGGS 110005Z 16006KT 08/01 A3029 RMK A01 T00820010  RH  061%=      5-min Rain = 0
KGGS 110010Z 17007KT 08/01 A3029 RMK A01 T00810010  RH  062%=      5-min Rain = 0
KGGS 110015Z 16006KT 08/01 A3029 RMK A01 T00800011  RH  063%=      5-min Rain = 0
KGGS 110020Z 17007KT 08/01 A3029 RMK A01 T00780011  RH  063%=      5-min Rain = 0
KGGS 110025Z 17006KT 08/01 A3029 RMK A01 T00770013  RH  065%=      5-min Rain = 0
KGGS 110030Z 17006KT 08/01 A3029 RMK A01 T00760014  RH  066%=      5-min Rain = 0
KGGS 110035Z 17006KT 08/02 A3029 RMK A01 T00750015  RH  066%=      5-min Rain = 0
KGGS 110040Z 16006KT 08/02 A3029 RMK A01 T00750015  RH  067%=      5-min Rain = 0
KGGS 110045Z 17006KT 07/02 A3029 RMK A01 T00740015  RH  067%=      5-min Rain = 0
KGGS 110050Z 17006KT 07/02 A3029 RMK A01 T00740015  RH  067%=      5-min Rain = 0
KGGS 110055Z 16005KT 07/01 A3029 RMK A01 T00730014  RH  067%=      5-min Rain = 0
KGGS 110100Z 17006KT 07/01 A3029 RMK A01 T00720014  RH  068%=      5-min Rain = 0
KGGS 110105Z 17006KT 07/01 A3029 RMK A01 T00700013  RH  068%=      5-min Rain = 0
KGGS 110110Z 17006KT 07/01 A3029 RMK A01 T00690013  RH  068%=      5-min Rain = 0
KGGS 110115Z 17007KT 07/01 A3029 RMK A01 T00690014  RH  069%=      5-min Rain = 0
KGGS 110120Z 17007KT 07/01 A3029 RMK A01 T00690013  RH  069%=      5-min Rain = 0
KGGS 110125Z 17006KT 07/01 A3029 RMK A01 T00690013  RH  068%=      5-min Rain = 0
KGGS 110130Z 17006KT 07/01 A3029 RMK A01 T00680011  RH  068%=      5-min Rain = 0
KGGS 110135Z 17007KT 07/01 A3029 RMK A01 T00670010  RH  068%=      5-min Rain = 0
KGGS 110140Z 18007KT 07/01 A3029 RMK A01 T00650010  RH  069%=      5-min Rain = 0
KGGS 110145Z 18007KT 06/01 A303 RMK A01 T00640010  RH  069%=      5-min Rain = 0
KGGS 110150Z 18007KT 06/01 A303 RMK A01 T00630010  RH  070%=      5-min Rain = 0
KGGS 110155Z 19008KT 06/01 A303 RMK A01 T00610010  RH  071%=      5-min Rain = 0
KGGS 110200Z 19007KT 06/01 A303 RMK A01 T00610011  RH  071%=      5-min Rain = 0
KGGS 110205Z 19007KT 06/01 A303 RMK A01 T00570008  RH  072%=      5-min Rain = 0
KGGS 110210Z 19007KT 05/01 A303 RMK A01 T00520007  RH  074%=      5-min Rain = 0
KGGS 110215Z 19007KT 05/01 A303 RMK A01 T00500008  RH  075%=      5-min Rain = 0
KGGS 110220Z 20007KT 05/01 A303 RMK A01 T00470008  RH  077%=      5-min Rain = 0
KGGS 110225Z 20007KT 05/01 A3031 RMK A01 T00460009  RH  078%=      5-min Rain = 0
KGGS 110230Z 21007KT 05/01 A303 RMK A01 T00460010  RH  079%=      5-min Rain = 0
KGGS 110235Z 21007KT 05/02 A303 RMK A01 T00490015  RH  080%=      5-min Rain = 0
KGGS 110240Z 21007KT 05/02 A3031 RMK A01 T00530019  RH  080%=      5-min Rain = 0
KGGS 110245Z 21007KT 05/02 A3031 RMK A01 T00530019  RH  080%=      5-min Rain = 0
KGGS 110250Z 21007KT 05/02 A3031 RMK A01 T00500018  RH  081%=      5-min Rain = 0
KGGS 110255Z 21007KT 05/02 A3031 RMK A01 T00500019  RH  082%=      5-min Rain = 0
KGGS 110300Z 21007KT 05/02 A3031 RMK A01 T00490020  RH  083%=      5-min Rain = 0
KGGS 110305Z 21007KT 05/02 A3031 RMK A01 T00470019  RH  083%=      5-min Rain = 0
KGGS 110310Z 21007KT 05/02 A3031 RMK A01 T00460019  RH  084%=      5-min Rain = 0
KGGS 110315Z 21007KT 05/02 A3031 RMK A01 T00450020  RH  085%=      5-min Rain = 0
KGGS 110320Z 20007KT 04/02 A303 RMK A01 T00440020  RH  085%=      5-min Rain = 0
KGGS 110325Z 20007KT 04/02 A303 RMK A01 T00430020  RH  086%=      5-min Rain = 0
KGGS 110330Z 21007KT 04/02 A303 RMK A01 T00430020  RH  087%=      5-min Rain = 0
KGGS 110335Z 21007KT 04/02 A303 RMK A01 T00430021  RH  087%=      5-min Rain = 0
KGGS 110340Z 21007KT 04/02 A303 RMK A01 T00420022  RH  088%=      5-min Rain = 0
KGGS 110345Z 21007KT 04/02 A303 RMK A01 T00410021  RH  088%=      5-min Rain = 0
KGGS 110350Z 21007KT 04/02 A303 RMK A01 T00420022  RH  089%=      5-min Rain = 0
KGGS 110355Z 21008KT 04/02 A3031 RMK A01 T00420023  RH  089%=      5-min Rain = 0
KGGS 110400Z 22008KT 04/03 A3031 RMK A01 T00430025  RH  089%=      5-min Rain = 0
KGGS 110405Z 22008KT 04/03 A3031 RMK A01 T00420025  RH  090%=      5-min Rain = 0
KGGS 110410Z 22008KT 04/02 A3031 RMK A01 T00420024  RH  090%=      5-min Rain = 0
KGGS 110415Z 22008KT 04/02 A303 RMK A01 T00410024  RH  090%=      5-min Rain = 0
KGGS 110420Z 23008KT 04/02 A303 RMK A01 T00390023  RH  090%=      5-min Rain = 0
KGGS 110425Z 23008KT 04/02 A303 RMK A01 T00380022  RH  091%=      5-min Rain = 0
KGGS 110430Z 23008KT 04/02 A303 RMK A01 T00390023  RH  091%=      5-min Rain = 0
KGGS 110435Z 22008KT 04/03 A3031 RMK A01 T00400025  RH  091%=      5-min Rain = 0
KGGS 110440Z 22008KT 04/03 A3031 RMK A01 T00410025  RH  091%=      5-min Rain = 0
KGGS 110445Z 23008KT 04/02 A3031 RMK A01 T00400024  RH  091%=      5-min Rain = 0
KGGS 110450Z 22008KT 04/02 A3031 RMK A01 T00390023  RH  091%=      5-min Rain = 0
KGGS 110455Z 22008KT 04/02 A3031 RMK A01 T00380023  RH  091%=      5-min Rain = 0
KGGS 110500Z 22008KT 04/02 A3031 RMK A01 T00370022  RH  092%=      5-min Rain = 0
KGGS 110505Z 23007KT 04/02 A3031 RMK A01 T00360022  RH  092%=      5-min Rain = 0
KGGS 110510Z 23008KT 03/02 A3031 RMK A01 T00330019  RH  092%=      5-min Rain = 0
KGGS 110515Z 22008KT 03/02 A3031 RMK A01 T00320018  RH  092%=      5-min Rain = 0
KGGS 110520Z 22008KT 03/02 A3031 RMK A01 T00320018  RH  092%=      5-min Rain = 0
KGGS 110525Z 22008KT 03/02 A3031 RMK A01 T00290016  RH  092%=      5-min Rain = 0
KGGS 110530Z 22008KT 03/02 A3031 RMK A01 T00300016  RH  092%=      5-min Rain = 0
KGGS 110535Z 22007KT 03/02 A3031 RMK A01 T00290016  RH  092%=      5-min Rain = 0
KGGS 110540Z 23007KT 03/02 A3031 RMK A01 T00280015  RH  092%=      5-min Rain = 0
KGGS 110545Z 23008KT 03/02 A3031 RMK A01 T00280015  RH  093%=      5-min Rain = 0
KGGS 110550Z 22008KT 03/02 A3031 RMK A01 T00280015  RH  093%=      5-min Rain = 0
KGGS 110555Z 22008KT 03/01 A303 RMK A01 T00270014  RH  093%=      5-min Rain = 0

Page generated in 0.0087 seconds.